sensor_id;sensor_type;location;lat;lon;timestamp;temperature;humidity
32536;DHT22;18974;50.838;4.636;2022-08-04T00:00:12;23.40;99.90
32536;DHT22;18974;50.838;4.636;2022-08-04T00:10:53;23.20;99.90
32536;DHT22;18974;50.838;4.636;2022-08-04T00:13:24;23.20;99.90
32536;DHT22;18974;50.838;4.636;2022-08-04T00:15:52;23.10;99.90
32536;DHT22;18974;50.838;4.636;2022-08-04T00:18:21;23.10;99.90
32536;DHT22;18974;50.838;4.636;2022-08-04T00:20:48;23.10;99.90
32536;DHT22;18974;50.838;4.636;2022-08-04T00:23:16;23.10;99.90
32536;DHT22;18974;50.838;4.636;2022-08-04T00:25:42;23.00;99.90
32536;DHT22;18974;50.838;4.636;2022-08-04T00:28:09;22.90;99.90
32536;DHT22;18974;50.838;4.636;2022-08-04T00:30:35;22.80;99.90
32536;DHT22;18974;50.838;4.636;2022-08-04T00:33:01;22.80;99.90
32536;DHT22;18974;50.838;4.636;2022-08-04T00:35:28;22.80;99.90
32536;DHT22;18974;50.838;4.636;2022-08-04T00:37:54;22.80;99.90
32536;DHT22;18974;50.838;4.636;2022-08-04T00:43:42;22.80;99.90
32536;DHT22;18974;50.838;4.636;2022-08-04T00:51:48;22.70;99.90
32536;DHT22;18974;50.838;4.636;2022-08-04T01:02:45;22.60;99.90
32536;DHT22;18974;50.838;4.636;2022-08-04T01:05:21;22.60;99.90
32536;DHT22;18974;50.838;4.636;2022-08-04T01:11:07;22.40;99.90
32536;DHT22;18974;50.838;4.636;2022-08-04T01:16:26;22.20;99.90
32536;DHT22;18974;50.838;4.636;2022-08-04T01:18:58;22.20;99.90
32536;DHT22;18974;50.838;4.636;2022-08-04T01:21:43;22.20;99.90
32536;DHT22;18974;50.838;4.636;2022-08-04T01:29:54;22.10;99.90
32536;DHT22;18974;50.838;4.636;2022-08-04T01:32:33;22.10;99.90
32536;DHT22;18974;50.838;4.636;2022-08-04T01:35:16;21.90;99.90
32536;DHT22;18974;50.838;4.636;2022-08-04T01:40:15;21.80;99.90
32536;DHT22;18974;50.838;4.636;2022-08-04T01:42:42;21.70;99.90
32536;DHT22;18974;50.838;4.636;2022-08-04T01:45:11;21.60;99.90
32536;DHT22;18974;50.838;4.636;2022-08-04T01:47:41;21.60;99.90
32536;DHT22;18974;50.838;4.636;2022-08-04T01:50:12;21.50;99.90
32536;DHT22;18974;50.838;4.636;2022-08-04T01:52:42;21.50;99.90
32536;DHT22;18974;50.838;4.636;2022-08-04T01:55:13;21.50;99.90
32536;DHT22;18974;50.838;4.636;2022-08-04T01:57:45;21.60;99.90
32536;DHT22;18974;50.838;4.636;2022-08-04T02:00:17;21.60;99.90
32536;DHT22;18974;50.838;4.636;2022-08-04T02:02:44;21.60;99.90
32536;DHT22;18974;50.838;4.636;2022-08-04T02:05:13;21.60;99.90
32536;DHT22;18974;50.838;4.636;2022-08-04T02:10:26;21.60;99.90
32536;DHT22;18974;50.838;4.636;2022-08-04T02:12:55;21.50;99.90
32536;DHT22;18974;50.838;4.636;2022-08-04T02:15:49;21.40;99.90
32536;DHT22;18974;50.838;4.636;2022-08-04T02:18:22;21.50;99.90
32536;DHT22;18974;50.838;4.636;2022-08-04T02:20:57;21.40;99.90
32536;DHT22;18974;50.838;4.636;2022-08-04T02:26:00;21.30;99.90
32536;DHT22;18974;50.838;4.636;2022-08-04T02:28:39;21.40;99.90
32536;DHT22;18974;50.838;4.636;2022-08-04T02:31:12;21.30;99.90
32536;DHT22;18974;50.838;4.636;2022-08-04T02:33:43;21.20;99.90
32536;DHT22;18974;50.838;4.636;2022-08-04T02:36:21;21.20;99.90
32536;DHT22;18974;50.838;4.636;2022-08-04T02:38:58;21.10;99.90
32536;DHT22;18974;50.838;4.636;2022-08-04T02:41:25;21.10;99.90
32536;DHT22;18974;50.838;4.636;2022-08-04T02:43:55;21.10;99.90
32536;DHT22;18974;50.838;4.636;2022-08-04T02:46:23;21.00;99.90
32536;DHT22;18974;50.838;4.636;2022-08-04T02:48:50;21.00;99.90
32536;DHT22;18974;50.838;4.636;2022-08-04T02:51:33;21.00;99.90
32536;DHT22;18974;50.838;4.636;2022-08-04T02:54:00;20.90;99.90
32536;DHT22;18974;50.838;4.636;2022-08-04T02:56:28;21.00;99.90
32536;DHT22;18974;50.838;4.636;2022-08-04T02:59:00;21.10;99.90
32536;DHT22;18974;50.838;4.636;2022-08-04T03:01:26;21.00;99.90
32536;DHT22;18974;50.838;4.636;2022-08-04T03:04:17;21.10;99.90
32536;DHT22;18974;50.838;4.636;2022-08-04T03:21:10;21.00;99.90
32536;DHT22;18974;50.838;4.636;2022-08-04T04:13:42;21.00;99.90
32536;DHT22;18974;50.838;4.636;2022-08-04T04:16:28;21.00;99.90
32536;DHT22;18974;50.838;4.636;2022-08-04T04:19:24;21.00;99.90
32536;DHT22;18974;50.838;4.636;2022-08-04T04:24:53;20.90;99.90
32536;DHT22;18974;50.838;4.636;2022-08-04T04:27:48;20.90;99.90
32536;DHT22;18974;50.838;4.636;2022-08-04T04:30:26;20.90;99.90
32536;DHT22;18974;50.838;4.636;2022-08-04T04:33:19;20.90;99.90
32536;DHT22;18974;50.838;4.636;2022-08-04T04:36:06;21.10;99.90
32536;DHT22;18974;50.838;4.636;2022-08-04T04:46:55;21.20;99.90
32536;DHT22;18974;50.838;4.636;2022-08-04T04:55:21;21.30;99.90
32536;DHT22;18974;50.838;4.636;2022-08-04T04:57:50;21.40;99.90
32536;DHT22;18974;50.838;4.636;2022-08-04T05:00:17;21.50;99.90
32536;DHT22;18974;50.838;4.636;2022-08-04T05:06:23;21.70;99.90
32536;DHT22;18974;50.838;4.636;2022-08-04T05:09:05;21.70;99.90
32536;DHT22;18974;50.838;4.636;2022-08-04T05:14:21;21.80;99.90
32536;DHT22;18974;50.838;4.636;2022-08-04T05:16:58;21.90;99.90
32536;DHT22;18974;50.838;4.636;2022-08-04T05:19:48;22.00;99.90
32536;DHT22;18974;50.838;4.636;2022-08-04T05:22:24;22.10;99.90
32536;DHT22;18974;50.838;4.636;2022-08-04T05:24:58;22.10;99.90
32536;DHT22;18974;50.838;4.636;2022-08-04T05:27:30;22.30;99.90
32536;DHT22;18974;50.838;4.636;2022-08-04T05:30:02;22.30;99.90
32536;DHT22;18974;50.838;4.636;2022-08-04T05:32:34;22.40;99.90
32536;DHT22;18974;50.838;4.636;2022-08-04T05:35:07;22.50;99.90
32536;DHT22;18974;50.838;4.636;2022-08-04T05:37:34;22.60;99.90
32536;DHT22;18974;50.838;4.636;2022-08-04T05:40:04;22.70;99.90
32536;DHT22;18974;50.838;4.636;2022-08-04T05:42:32;22.90;99.90
32536;DHT22;18974;50.838;4.636;2022-08-04T05:45:01;23.00;99.90
32536;DHT22;18974;50.838;4.636;2022-08-04T05:47:29;23.10;99.90
32536;DHT22;18974;50.838;4.636;2022-08-04T05:49:56;23.30;99.90
32536;DHT22;18974;50.838;4.636;2022-08-04T05:52:23;23.50;99.90
32536;DHT22;18974;50.838;4.636;2022-08-04T05:54:50;23.60;99.90
32536;DHT22;18974;50.838;4.636;2022-08-04T05:57:17;23.70;99.90
32536;DHT22;18974;50.838;4.636;2022-08-04T05:59:44;23.80;99.90
32536;DHT22;18974;50.838;4.636;2022-08-04T06:02:14;23.90;99.90
32536;DHT22;18974;50.838;4.636;2022-08-04T06:04:44;24.00;99.90
32536;DHT22;18974;50.838;4.636;2022-08-04T06:07:10;24.10;99.90
32536;DHT22;18974;50.838;4.636;2022-08-04T06:09:36;24.20;99.90
32536;DHT22;18974;50.838;4.636;2022-08-04T06:12:06;24.30;99.90
32536;DHT22;18974;50.838;4.636;2022-08-04T06:14:54;24.40;99.90
32536;DHT22;18974;50.838;4.636;2022-08-04T06:17:31;24.50;99.90
32536;DHT22;18974;50.838;4.636;2022-08-04T06:19:58;24.60;99.90
32536;DHT22;18974;50.838;4.636;2022-08-04T06:22:30;24.60;99.90
32536;DHT22;18974;50.838;4.636;2022-08-04T06:24:58;24.70;99.90
32536;DHT22;18974;50.838;4.636;2022-08-04T06:27:26;24.70;99.90
32536;DHT22;18974;50.838;4.636;2022-08-04T06:29:53;24.60;99.90
32536;DHT22;18974;50.838;4.636;2022-08-04T06:32:19;24.50;99.90
32536;DHT22;18974;50.838;4.636;2022-08-04T06:34:53;24.40;99.90
32536;DHT22;18974;50.838;4.636;2022-08-04T06:37:20;24.30;99.90
32536;DHT22;18974;50.838;4.636;2022-08-04T06:39:47;24.30;99.90
32536;DHT22;18974;50.838;4.636;2022-08-04T06:42:14;24.20;99.90
32536;DHT22;18974;50.838;4.636;2022-08-04T06:44:41;24.30;99.90
32536;DHT22;18974;50.838;4.636;2022-08-04T06:47:09;24.30;99.90
32536;DHT22;18974;50.838;4.636;2022-08-04T06:49:36;24.40;99.90
32536;DHT22;18974;50.838;4.636;2022-08-04T06:52:03;24.70;99.90
32536;DHT22;18974;50.838;4.636;2022-08-04T06:54:33;24.90;99.90
32536;DHT22;18974;50.838;4.636;2022-08-04T06:57:00;25.20;99.90
32536;DHT22;18974;50.838;4.636;2022-08-04T06:59:27;25.30;99.90
32536;DHT22;18974;50.838;4.636;2022-08-04T07:01:55;25.40;99.90
32536;DHT22;18974;50.838;4.636;2022-08-04T07:04:24;25.40;99.90
32536;DHT22;18974;50.838;4.636;2022-08-04T07:06:50;25.50;99.90
32536;DHT22;18974;50.838;4.636;2022-08-04T07:09:15;25.60;99.90
32536;DHT22;18974;50.838;4.636;2022-08-04T07:11:41;25.70;99.90
32536;DHT22;18974;50.838;4.636;2022-08-04T07:14:07;25.90;99.90
32536;DHT22;18974;50.838;4.636;2022-08-04T07:16:34;26.00;99.90
32536;DHT22;18974;50.838;4.636;2022-08-04T07:19:00;26.30;99.90
32536;DHT22;18974;50.838;4.636;2022-08-04T07:21:25;26.70;99.90
32536;DHT22;18974;50.838;4.636;2022-08-04T07:23:52;27.00;99.70
32536;DHT22;18974;50.838;4.636;2022-08-04T07:26:18;27.30;99.10
32536;DHT22;18974;50.838;4.636;2022-08-04T07:28:44;27.50;98.60
32536;DHT22;18974;50.838;4.636;2022-08-04T07:31:15;27.50;98.30
32536;DHT22;18974;50.838;4.636;2022-08-04T07:33:42;27.50;98.50
32536;DHT22;18974;50.838;4.636;2022-08-04T07:36:08;27.60;98.30
32536;DHT22;18974;50.838;4.636;2022-08-04T07:38:34;27.70;98.20
32536;DHT22;18974;50.838;4.636;2022-08-04T07:41:00;27.70;98.20
32536;DHT22;18974;50.838;4.636;2022-08-04T07:43:29;27.80;98.50
32536;DHT22;18974;50.838;4.636;2022-08-04T07:45:55;27.80;98.20
32536;DHT22;18974;50.838;4.636;2022-08-04T07:48:21;27.80;97.60
32536;DHT22;18974;50.838;4.636;2022-08-04T07:50:49;27.90;97.50
32536;DHT22;18974;50.838;4.636;2022-08-04T07:53:15;27.90;97.80
32536;DHT22;18974;50.838;4.636;2022-08-04T07:55:51;27.90;97.80
32536;DHT22;18974;50.838;4.636;2022-08-04T07:58:17;27.90;97.90
32536;DHT22;18974;50.838;4.636;2022-08-04T08:00:44;28.00;97.80
32536;DHT22;18974;50.838;4.636;2022-08-04T08:03:12;27.90;97.80
32536;DHT22;18974;50.838;4.636;2022-08-04T08:05:40;27.90;97.80
32536;DHT22;18974;50.838;4.636;2022-08-04T08:08:07;28.00;97.70
32536;DHT22;18974;50.838;4.636;2022-08-04T08:10:33;28.00;97.70
32536;DHT22;18974;50.838;4.636;2022-08-04T08:12:58;28.00;97.70
32536;DHT22;18974;50.838;4.636;2022-08-04T08:15:24;28.00;97.40
32536;DHT22;18974;50.838;4.636;2022-08-04T08:17:50;27.90;98.00
32536;DHT22;18974;50.838;4.636;2022-08-04T08:20:16;28.00;97.80
32536;DHT22;18974;50.838;4.636;2022-08-04T08:22:42;28.20;97.60
32536;DHT22;18974;50.838;4.636;2022-08-04T08:25:08;28.30;97.80
32536;DHT22;18974;50.838;4.636;2022-08-04T08:27:33;28.40;97.30
32536;DHT22;18974;50.838;4.636;2022-08-04T08:30:01;28.60;97.10
32536;DHT22;18974;50.838;4.636;2022-08-04T08:32:27;28.70;96.70
32536;DHT22;18974;50.838;4.636;2022-08-04T08:34:53;28.80;96.70
32536;DHT22;18974;50.838;4.636;2022-08-04T08:37:25;28.80;96.50
32536;DHT22;18974;50.838;4.636;2022-08-04T08:42:54;28.60;96.60
32536;DHT22;18974;50.838;4.636;2022-08-04T09:01:54;28.00;96.90
32536;DHT22;18974;50.838;4.636;2022-08-04T09:04:32;27.80;97.10
32536;DHT22;18974;50.838;4.636;2022-08-04T09:18:06;27.00;98.60
32536;DHT22;18974;50.838;4.636;2022-08-04T09:23:19;26.90;99.30
32536;DHT22;18974;50.838;4.636;2022-08-04T09:26:14;26.60;99.60
32536;DHT22;18974;50.838;4.636;2022-08-04T09:28:58;26.50;99.90
32536;DHT22;18974;50.838;4.636;2022-08-04T09:31:35;26.20;99.90
32536;DHT22;18974;50.838;4.636;2022-08-04T09:34:19;25.90;99.90
32536;DHT22;18974;50.838;4.636;2022-08-04T09:36:55;25.70;99.90
32536;DHT22;18974;50.838;4.636;2022-08-04T09:39:32;25.30;99.90
32536;DHT22;18974;50.838;4.636;2022-08-04T09:44:52;24.80;99.90
32536;DHT22;18974;50.838;4.636;2022-08-04T09:47:58;24.80;99.90
32536;DHT22;18974;50.838;4.636;2022-08-04T09:50:36;24.90;99.90
32536;DHT22;18974;50.838;4.636;2022-08-04T09:53:12;25.30;99.90
32536;DHT22;18974;50.838;4.636;2022-08-04T09:58:24;26.20;99.90
32536;DHT22;18974;50.838;4.636;2022-08-04T10:01:05;26.50;99.90
32536;DHT22;18974;50.838;4.636;2022-08-04T10:03:35;27.10;99.90
32536;DHT22;18974;50.838;4.636;2022-08-04T10:06:31;27.50;99.90
32536;DHT22;18974;50.838;4.636;2022-08-04T10:09:11;28.00;99.90
32536;DHT22;18974;50.838;4.636;2022-08-04T10:23:04;28.70;98.40
32536;DHT22;18974;50.838;4.636;2022-08-04T10:28:22;28.90;97.90
32536;DHT22;18974;50.838;4.636;2022-08-04T10:31:02;28.70;97.90
32536;DHT22;18974;50.838;4.636;2022-08-04T10:33:32;28.50;97.90
32536;DHT22;18974;50.838;4.636;2022-08-04T10:36:08;28.30;98.30
32536;DHT22;18974;50.838;4.636;2022-08-04T10:44:33;28.50;97.60
32536;DHT22;18974;50.838;4.636;2022-08-04T10:47:04;28.60;97.60
32536;DHT22;18974;50.838;4.636;2022-08-04T10:49:57;28.80;97.60
32536;DHT22;18974;50.838;4.636;2022-08-04T10:52:41;29.10;96.80
32536;DHT22;18974;50.838;4.636;2022-08-04T10:55:56;29.20;97.30
32536;DHT22;18974;50.838;4.636;2022-08-04T10:58:17;29.30;96.90
32536;DHT22;18974;50.838;4.636;2022-08-04T11:00:45;29.50;96.80
32536;DHT22;18974;50.838;4.636;2022-08-04T11:03:37;29.50;97.00
32536;DHT22;18974;50.838;4.636;2022-08-04T11:06:05;29.70;97.40
32536;DHT22;18974;50.838;4.636;2022-08-04T11:08:55;29.70;97.30
32536;DHT22;18974;50.838;4.636;2022-08-04T11:12:13;29.80;96.80
32536;DHT22;18974;50.838;4.636;2022-08-04T11:14:21;30.00;96.70
32536;DHT22;18974;50.838;4.636;2022-08-04T11:19:47;30.20;96.30
32536;DHT22;18974;50.838;4.636;2022-08-04T11:27:36;30.20;94.80
32536;DHT22;18974;50.838;4.636;2022-08-04T11:30:05;30.30;95.30
32536;DHT22;18974;50.838;4.636;2022-08-04T11:33:18;30.30;95.60
32536;DHT22;18974;50.838;4.636;2022-08-04T11:35:43;30.30;95.30
32536;DHT22;18974;50.838;4.636;2022-08-04T11:40:44;30.50;94.90
32536;DHT22;18974;50.838;4.636;2022-08-04T11:43:16;30.40;95.10
32536;DHT22;18974;50.838;4.636;2022-08-04T11:45:59;30.40;94.70
32536;DHT22;18974;50.838;4.636;2022-08-04T11:48:33;30.50;94.90
32536;DHT22;18974;50.838;4.636;2022-08-04T11:51:01;30.40;93.90
32536;DHT22;18974;50.838;4.636;2022-08-04T11:53:31;30.40;94.30
32536;DHT22;18974;50.838;4.636;2022-08-04T11:56:05;30.30;95.00
32536;DHT22;18974;50.838;4.636;2022-08-04T11:58:31;30.30;94.80
32536;DHT22;18974;50.838;4.636;2022-08-04T12:03:53;30.10;93.50
32536;DHT22;18974;50.838;4.636;2022-08-04T12:09:21;30.00;93.60
32536;DHT22;18974;50.838;4.636;2022-08-04T12:12:17;30.10;93.90
32536;DHT22;18974;50.838;4.636;2022-08-04T12:15:06;30.20;93.60
32536;DHT22;18974;50.838;4.636;2022-08-04T12:17:56;30.30;93.60
32536;DHT22;18974;50.838;4.636;2022-08-04T12:20:24;30.30;93.40
32536;DHT22;18974;50.838;4.636;2022-08-04T12:22:54;30.30;93.80
32536;DHT22;18974;50.838;4.636;2022-08-04T12:25:30;30.20;94.00
32536;DHT22;18974;50.838;4.636;2022-08-04T12:28:02;30.40;93.50
32536;DHT22;18974;50.838;4.636;2022-08-04T12:30:35;30.60;93.20
32536;DHT22;18974;50.838;4.636;2022-08-04T12:33:11;30.70;92.60
32536;DHT22;18974;50.838;4.636;2022-08-04T12:35:59;30.80;93.30
32536;DHT22;18974;50.838;4.636;2022-08-04T12:38:29;30.50;92.70
32536;DHT22;18974;50.838;4.636;2022-08-04T12:41:04;30.30;93.60
32536;DHT22;18974;50.838;4.636;2022-08-04T12:46:12;30.60;93.20
32536;DHT22;18974;50.838;4.636;2022-08-04T12:48:48;30.50;93.30
32536;DHT22;18974;50.838;4.636;2022-08-04T12:51:14;30.20;93.20
32536;DHT22;18974;50.838;4.636;2022-08-04T12:53:42;30.30;94.30
32536;DHT22;18974;50.838;4.636;2022-08-04T12:56:23;30.50;94.20
32536;DHT22;18974;50.838;4.636;2022-08-04T12:58:51;30.60;93.00
32536;DHT22;18974;50.838;4.636;2022-08-04T13:01:18;30.70;94.00
32536;DHT22;18974;50.838;4.636;2022-08-04T13:03:51;30.80;93.20
32536;DHT22;18974;50.838;4.636;2022-08-04T13:06:25;31.00;93.00
32536;DHT22;18974;50.838;4.636;2022-08-04T13:08:52;31.20;92.70
32536;DHT22;18974;50.838;4.636;2022-08-04T13:11:22;31.50;92.40
32536;DHT22;18974;50.838;4.636;2022-08-04T13:13:53;31.70;92.50
32536;DHT22;18974;50.838;4.636;2022-08-04T13:16:28;32.00;91.80
32536;DHT22;18974;50.838;4.636;2022-08-04T13:18:55;32.10;92.00
32536;DHT22;18974;50.838;4.636;2022-08-04T13:21:22;32.10;91.70
32536;DHT22;18974;50.838;4.636;2022-08-04T13:23:52;32.10;91.30
32536;DHT22;18974;50.838;4.636;2022-08-04T13:26:18;31.90;91.20
32536;DHT22;18974;50.838;4.636;2022-08-04T13:29:00;31.70;91.70
32536;DHT22;18974;50.838;4.636;2022-08-04T13:31:27;31.60;91.70
32536;DHT22;18974;50.838;4.636;2022-08-04T13:34:04;31.30;92.00
32536;DHT22;18974;50.838;4.636;2022-08-04T13:36:33;31.20;91.30
32536;DHT22;18974;50.838;4.636;2022-08-04T13:39:06;31.30;91.30
32536;DHT22;18974;50.838;4.636;2022-08-04T13:41:35;31.30;91.70
32536;DHT22;18974;50.838;4.636;2022-08-04T13:44:05;31.50;91.80
32536;DHT22;18974;50.838;4.636;2022-08-04T13:46:52;31.40;92.30
32536;DHT22;18974;50.838;4.636;2022-08-04T13:49:26;31.50;92.10
32536;DHT22;18974;50.838;4.636;2022-08-04T13:51:55;31.60;91.90
32536;DHT22;18974;50.838;4.636;2022-08-04T13:54:22;31.70;90.30
32536;DHT22;18974;50.838;4.636;2022-08-04T13:56:54;31.40;90.90
32536;DHT22;18974;50.838;4.636;2022-08-04T13:59:24;31.60;90.60
32536;DHT22;18974;50.838;4.636;2022-08-04T14:02:07;31.90;90.30
32536;DHT22;18974;50.838;4.636;2022-08-04T14:04:40;32.20;90.20
32536;DHT22;18974;50.838;4.636;2022-08-04T14:07:13;32.30;90.40
32536;DHT22;18974;50.838;4.636;2022-08-04T14:09:39;32.30;90.60
32536;DHT22;18974;50.838;4.636;2022-08-04T14:12:11;32.30;87.80
32536;DHT22;18974;50.838;4.636;2022-08-04T14:14:48;32.60;90.00
32536;DHT22;18974;50.838;4.636;2022-08-04T14:17:22;32.70;87.90
32536;DHT22;18974;50.838;4.636;2022-08-04T14:19:51;32.70;88.20
32536;DHT22;18974;50.838;4.636;2022-08-04T14:25:22;32.70;90.00
32536;DHT22;18974;50.838;4.636;2022-08-04T14:27:53;32.70;89.70
32536;DHT22;18974;50.838;4.636;2022-08-04T14:32:59;32.60;88.50
32536;DHT22;18974;50.838;4.636;2022-08-04T14:35:28;32.50;90.20
32536;DHT22;18974;50.838;4.636;2022-08-04T14:37:58;32.50;90.50
32536;DHT22;18974;50.838;4.636;2022-08-04T14:40:29;32.40;89.00
32536;DHT22;18974;50.838;4.636;2022-08-04T14:42:57;32.30;90.00
32536;DHT22;18974;50.838;4.636;2022-08-04T14:45:31;32.30;90.20
32536;DHT22;18974;50.838;4.636;2022-08-04T14:47:57;32.10;87.10
32536;DHT22;18974;50.838;4.636;2022-08-04T14:53:06;32.50;88.10
32536;DHT22;18974;50.838;4.636;2022-08-04T14:55:32;32.40;90.10
32536;DHT22;18974;50.838;4.636;2022-08-04T14:57:58;32.20;90.30
32536;DHT22;18974;50.838;4.636;2022-08-04T15:00:29;31.80;88.80
32536;DHT22;18974;50.838;4.636;2022-08-04T15:03:03;31.50;90.40
32536;DHT22;18974;50.838;4.636;2022-08-04T15:05:29;31.50;90.90
32536;DHT22;18974;50.838;4.636;2022-08-04T15:07:58;31.30;90.50
32536;DHT22;18974;50.838;4.636;2022-08-04T15:10:25;31.30;91.10
32536;DHT22;18974;50.838;4.636;2022-08-04T15:12:50;31.30;91.40
32536;DHT22;18974;50.838;4.636;2022-08-04T15:15:16;31.20;90.90
32536;DHT22;18974;50.838;4.636;2022-08-04T15:17:42;31.00;90.90
32536;DHT22;18974;50.838;4.636;2022-08-04T15:20:09;30.80;90.70
32536;DHT22;18974;50.838;4.636;2022-08-04T15:22:35;30.80;91.00
32536;DHT22;18974;50.838;4.636;2022-08-04T15:25:00;30.70;91.20
32536;DHT22;18974;50.838;4.636;2022-08-04T15:27:28;30.70;92.00
32536;DHT22;18974;50.838;4.636;2022-08-04T15:30:00;30.60;92.20
32536;DHT22;18974;50.838;4.636;2022-08-04T15:32:31;30.60;92.30
32536;DHT22;18974;50.838;4.636;2022-08-04T15:35:03;30.60;92.00
32536;DHT22;18974;50.838;4.636;2022-08-04T15:40:03;30.70;92.10
32536;DHT22;18974;50.838;4.636;2022-08-04T15:42:35;30.60;92.40
32536;DHT22;18974;50.838;4.636;2022-08-04T15:45:10;30.50;91.70
32536;DHT22;18974;50.838;4.636;2022-08-04T15:47:36;30.40;92.10
32536;DHT22;18974;50.838;4.636;2022-08-04T15:50:08;30.50;92.40
32536;DHT22;18974;50.838;4.636;2022-08-04T15:53:04;30.40;91.90
32536;DHT22;18974;50.838;4.636;2022-08-04T15:55:30;30.30;92.60
32536;DHT22;18974;50.838;4.636;2022-08-04T15:58:07;30.30;91.40
32536;DHT22;18974;50.838;4.636;2022-08-04T16:21:56;30.70;90.40
32536;DHT22;18974;50.838;4.636;2022-08-04T16:24:35;30.80;90.70
32536;DHT22;18974;50.838;4.636;2022-08-04T16:27:06;30.80;90.70
32536;DHT22;18974;50.838;4.636;2022-08-04T16:29:45;30.70;90.80
32536;DHT22;18974;50.838;4.636;2022-08-04T16:32:16;30.80;91.10
32536;DHT22;18974;50.838;4.636;2022-08-04T16:35:00;30.70;90.60
32536;DHT22;18974;50.838;4.636;2022-08-04T16:43:18;30.60;91.90
32536;DHT22;18974;50.838;4.636;2022-08-04T16:46:02;30.50;91.40
32536;DHT22;18974;50.838;4.636;2022-08-04T16:48:30;30.50;92.00
32536;DHT22;18974;50.838;4.636;2022-08-04T16:51:02;30.50;92.50
32536;DHT22;18974;50.838;4.636;2022-08-04T16:53:36;30.40;92.30
32536;DHT22;18974;50.838;4.636;2022-08-04T16:56:02;30.40;92.60
32536;DHT22;18974;50.838;4.636;2022-08-04T16:58:33;30.40;92.60
32536;DHT22;18974;50.838;4.636;2022-08-04T17:01:10;30.40;92.70
32536;DHT22;18974;50.838;4.636;2022-08-04T17:03:37;30.40;92.00
32536;DHT22;18974;50.838;4.636;2022-08-04T17:06:07;30.40;92.40
32536;DHT22;18974;50.838;4.636;2022-08-04T17:08:33;30.30;91.60
32536;DHT22;18974;50.838;4.636;2022-08-04T17:11:00;30.20;91.20
32536;DHT22;18974;50.838;4.636;2022-08-04T17:16:00;29.80;91.30
32536;DHT22;18974;50.838;4.636;2022-08-04T17:18:32;29.80;92.20
32536;DHT22;18974;50.838;4.636;2022-08-04T17:21:06;29.70;91.90
32536;DHT22;18974;50.838;4.636;2022-08-04T17:23:33;29.80;91.70
32536;DHT22;18974;50.838;4.636;2022-08-04T17:26:13;29.80;91.80
32536;DHT22;18974;50.838;4.636;2022-08-04T17:28:40;29.80;91.50
32536;DHT22;18974;50.838;4.636;2022-08-04T17:31:09;29.80;91.80
32536;DHT22;18974;50.838;4.636;2022-08-04T17:33:43;29.80;92.10
32536;DHT22;18974;50.838;4.636;2022-08-04T17:36:09;29.70;92.40
32536;DHT22;18974;50.838;4.636;2022-08-04T17:38:40;29.60;92.60
32536;DHT22;18974;50.838;4.636;2022-08-04T17:41:09;29.60;92.70
32536;DHT22;18974;50.838;4.636;2022-08-04T17:43:49;29.40;92.70
32536;DHT22;18974;50.838;4.636;2022-08-04T17:46:21;29.40;92.70
32536;DHT22;18974;50.838;4.636;2022-08-04T17:51:45;29.20;92.80
32536;DHT22;18974;50.838;4.636;2022-08-04T17:54:16;29.10;92.70
32536;DHT22;18974;50.838;4.636;2022-08-04T17:56:43;28.90;92.60
32536;DHT22;18974;50.838;4.636;2022-08-04T17:59:42;28.60;93.10
32536;DHT22;18974;50.838;4.636;2022-08-04T18:02:09;28.30;93.40
32536;DHT22;18974;50.838;4.636;2022-08-04T18:09:47;28.00;93.60
32536;DHT22;18974;50.838;4.636;2022-08-04T18:14:53;27.70;93.70
32536;DHT22;18974;50.838;4.636;2022-08-04T18:17:49;27.70;93.90
32536;DHT22;18974;50.838;4.636;2022-08-04T18:20:18;27.60;93.90
32536;DHT22;18974;50.838;4.636;2022-08-04T18:22:45;27.50;94.30
32536;DHT22;18974;50.838;4.636;2022-08-04T18:25:13;27.40;94.00
32536;DHT22;18974;50.838;4.636;2022-08-04T18:27:52;27.40;93.80
32536;DHT22;18974;50.838;4.636;2022-08-04T18:30:21;27.30;93.90
32536;DHT22;18974;50.838;4.636;2022-08-04T18:32:47;27.20;93.90
32536;DHT22;18974;50.838;4.636;2022-08-04T18:35:13;27.20;93.70
32536;DHT22;18974;50.838;4.636;2022-08-04T18:37:39;27.10;93.70
32536;DHT22;18974;50.838;4.636;2022-08-04T18:40:06;27.00;93.70
32536;DHT22;18974;50.838;4.636;2022-08-04T18:42:33;26.80;93.70
32536;DHT22;18974;50.838;4.636;2022-08-04T18:44:59;26.80;93.90
32536;DHT22;18974;50.838;4.636;2022-08-04T18:47:25;26.70;93.90
32536;DHT22;18974;50.838;4.636;2022-08-04T18:49:51;26.60;93.90
32536;DHT22;18974;50.838;4.636;2022-08-04T18:52:17;26.50;93.80
32536;DHT22;18974;50.838;4.636;2022-08-04T18:54:43;26.40;93.80
32536;DHT22;18974;50.838;4.636;2022-08-04T18:57:09;26.20;94.00
32536;DHT22;18974;50.838;4.636;2022-08-04T18:59:35;26.30;94.10
32536;DHT22;18974;50.838;4.636;2022-08-04T19:02:00;26.20;94.40
32536;DHT22;18974;50.838;4.636;2022-08-04T19:04:26;26.20;94.40
32536;DHT22;18974;50.838;4.636;2022-08-04T19:06:52;26.10;94.60
32536;DHT22;18974;50.838;4.636;2022-08-04T19:09:17;26.00;96.30
32536;DHT22;18974;50.838;4.636;2022-08-04T19:11:43;25.50;99.50
32536;DHT22;18974;50.838;4.636;2022-08-04T19:14:09;24.90;99.90
32536;DHT22;18974;50.838;4.636;2022-08-04T19:16:35;24.30;99.90
32536;DHT22;18974;50.838;4.636;2022-08-04T19:19:03;23.80;99.90
32536;DHT22;18974;50.838;4.636;2022-08-04T19:21:30;23.40;99.90
32536;DHT22;18974;50.838;4.636;2022-08-04T19:23:55;23.10;99.90
32536;DHT22;18974;50.838;4.636;2022-08-04T19:26:22;22.90;99.90
32536;DHT22;18974;50.838;4.636;2022-08-04T19:28:50;22.80;99.90
32536;DHT22;18974;50.838;4.636;2022-08-04T19:31:16;22.50;99.90
32536;DHT22;18974;50.838;4.636;2022-08-04T19:33:42;22.40;99.90
32536;DHT22;18974;50.838;4.636;2022-08-04T19:36:08;22.10;99.90
32536;DHT22;18974;50.838;4.636;2022-08-04T19:38:35;22.10;99.90
32536;DHT22;18974;50.838;4.636;2022-08-04T19:41:02;22.00;99.90
32536;DHT22;18974;50.838;4.636;2022-08-04T19:43:29;21.90;99.90
32536;DHT22;18974;50.838;4.636;2022-08-04T19:45:55;21.90;99.90
32536;DHT22;18974;50.838;4.636;2022-08-04T19:48:21;21.80;99.90
32536;DHT22;18974;50.838;4.636;2022-08-04T19:50:47;21.90;99.90
32536;DHT22;18974;50.838;4.636;2022-08-04T19:53:12;21.80;99.90
32536;DHT22;18974;50.838;4.636;2022-08-04T19:55:40;21.70;99.90
32536;DHT22;18974;50.838;4.636;2022-08-04T19:58:07;21.70;99.90
32536;DHT22;18974;50.838;4.636;2022-08-04T20:00:33;21.70;99.90
32536;DHT22;18974;50.838;4.636;2022-08-04T20:03:00;21.80;99.90
32536;DHT22;18974;50.838;4.636;2022-08-04T20:05:25;21.60;99.90
32536;DHT22;18974;50.838;4.636;2022-08-04T20:07:51;21.50;99.90
32536;DHT22;18974;50.838;4.636;2022-08-04T20:10:17;21.40;99.90
32536;DHT22;18974;50.838;4.636;2022-08-04T20:12:43;21.50;99.90
32536;DHT22;18974;50.838;4.636;2022-08-04T20:15:09;21.50;99.90
32536;DHT22;18974;50.838;4.636;2022-08-04T20:17:35;21.40;99.90